Time;durP1;ratioP1;P1;durP2;ratioP2;P2;SDS_P1;SDS_P2;PMS_P1;PMS_P2;Temp;Humidity;BMP_temperature;BMP_pressure;BME280_temperature;BME280_humidity;BME280_pressure;Samples;Min_cycle;Max_cycle;Signal;HPM_P1;HPM_P2
2021/11/27 00:01:04;;;;;;;;;;;3.00;99.90;;;;;;5000622;28;19997;-80
2021/11/27 00:03:31;;;;;;;;;;;2.90;99.90;;;;;;4999532;28;19961;-80
2021/11/27 00:05:58;;;;;;;;;;;2.90;99.90;;;;;;5001130;28;19981;-81
2021/11/27 00:08:25;;;;;;;;;;;2.90;99.90;;;;;;5006189;28;19965;-82
2021/11/27 00:10:54;;;;;;;;;;;2.90;99.90;;;;;;5009307;28;20001;-81
2021/11/27 00:13:22;;;;;;;;;;;2.90;99.90;;;;;;4999477;28;19954;-79
2021/11/27 00:15:50;;;;;;;;;;;2.90;99.90;;;;;;5010412;28;19985;-81
2021/11/27 00:18:17;;;;;;;;;;;3.00;99.90;;;;;;5011941;28;19986;-81
2021/11/27 00:20:46;;;;;;;;;;;3.00;99.90;;;;;;5005557;28;19910;-81
2021/11/27 00:23:13;;;;;;;;;;;3.00;99.90;;;;;;4998656;28;19956;-81
2021/11/27 00:25:41;;;;;;;;;;;3.00;99.90;;;;;;5013312;28;19938;-81
2021/11/27 00:28:09;;;;;;;;;;;3.10;99.90;;;;;;5015368;28;19961;-80
2021/11/27 00:30:39;;;;;;;;;;;3.10;99.90;;;;;;5009266;28;19942;-82
2021/11/27 00:33:06;;;;;;;;;;;3.10;99.90;;;;;;5009968;28;19932;-75
2021/11/27 00:35:33;;;;;;;;;;;3.20;99.90;;;;;;5003519;28;19973;-81
2021/11/27 00:38:00;;;;;;;;;;;3.20;99.90;;;;;;5002235;28;19941;-81
2021/11/27 00:40:27;;;;;;;;;;;3.20;99.90;;;;;;5017622;28;19909;-79
2021/11/27 00:42:55;;;;;;;;;;;3.20;99.90;;;;;;5015767;28;19938;-75
2021/11/27 00:45:23;;;;;;;;;;;3.20;99.90;;;;;;5008974;28;19910;-79
2021/11/27 00:47:52;;;;;;;;;;;3.20;99.90;;;;;;5016062;28;19910;-78
2021/11/27 00:50:25;;;;;;;;;;;3.30;99.90;;;;;;5005242;28;19914;-81
2021/11/27 00:52:51;;;;;;;;;;;3.30;99.90;;;;;;5013678;28;19965;-82
2021/11/27 00:55:19;;;;;;;;;;;3.30;99.90;;;;;;5015695;28;19981;-81
2021/11/27 00:57:51;;;;;;;;;;;3.30;99.90;;;;;;5001950;28;19933;-81
2021/11/27 01:00:20;;;;;;;;;;;3.30;99.90;;;;;;5009592;28;19941;-81
2021/11/27 01:02:48;;;;;;;;;;;3.30;99.90;;;;;;5012886;28;19978;-81
2021/11/27 01:05:15;;;;;;;;;;;3.20;99.90;;;;;;5012786;28;19920;-80
2021/11/27 01:07:42;;;;;;;;;;;3.20;99.90;;;;;;5011409;28;19945;-81
2021/11/27 01:12:45;;;;;;;;;;;3.10;99.90;;;;;;5133156;23;19924;-81
2021/11/27 01:15:15;;;;;;;;;;;3.10;99.90;;;;;;5014252;28;19936;-81
2021/11/27 01:17:42;;;;;;;;;;;3.00;99.90;;;;;;5011248;28;19926;-81
2021/11/27 01:20:13;;;;;;;;;;;3.00;99.90;;;;;;5019498;28;19940;-76
2021/11/27 01:22:40;;;;;;;;;;;3.00;99.90;;;;;;5003916;28;19933;-81
2021/11/27 01:25:09;;;;;;;;;;;2.90;99.90;;;;;;5014144;28;19926;-81
2021/11/27 01:27:53;;;;;;;;;;;2.90;99.90;;;;;;5028269;23;19914;-81
2021/11/27 01:30:20;;;;;;;;;;;2.80;99.90;;;;;;4996963;28;19914;-83
2021/11/27 01:32:47;;;;;;;;;;;2.80;99.90;;;;;;5036214;23;19926;-81
2021/11/27 01:35:16;;;;;;;;;;;2.70;99.90;;;;;;5004310;28;19917;-82
2021/11/27 01:37:43;;;;;;;;;;;2.70;99.90;;;;;;5017222;28;19949;-81
2021/11/27 01:40:12;;;;;;;;;;;2.70;99.90;;;;;;5011306;28;19910;-81
2021/11/27 01:42:39;;;;;;;;;;;2.60;99.90;;;;;;5012180;28;19926;-82
2021/11/27 01:45:13;;;;;;;;;;;2.60;99.90;;;;;;5014655;28;19934;-82
2021/11/27 01:47:40;;;;;;;;;;;2.60;99.90;;;;;;5006454;28;19930;-80
2021/11/27 01:50:09;;;;;;;;;;;2.50;99.90;;;;;;5004833;28;19933;-80
2021/11/27 01:52:37;;;;;;;;;;;2.40;99.90;;;;;;5019696;28;19954;-80
2021/11/27 01:55:04;;;;;;;;;;;2.40;99.90;;;;;;5001607;28;19918;-81
2021/11/27 01:57:31;;;;;;;;;;;2.40;99.90;;;;;;5019061;28;19926;-81
2021/11/27 02:00:00;;;;;;;;;;;2.40;99.90;;;;;;5010071;28;19926;-81
2021/11/27 02:02:58;;;;;;;;;;;2.50;99.90;;;;;;5010102;28;19925;-81
2021/11/27 02:05:24;;;;;;;;;;;2.40;99.90;;;;;;5004209;28;19909;-80
2021/11/27 02:07:53;;;;;;;;;;;2.40;99.90;;;;;;5006994;28;19937;-81
2021/11/27 02:10:19;;;;;;;;;;;2.30;99.90;;;;;;5015287;28;20011;-81
2021/11/27 02:12:46;;;;;;;;;;;2.30;99.90;;;;;;5010616;28;19968;-80
2021/11/27 02:15:14;;;;;;;;;;;2.30;99.90;;;;;;5010985;28;19933;-80
2021/11/27 02:17:41;;;;;;;;;;;2.30;99.90;;;;;;5013789;28;19932;-80
2021/11/27 02:20:09;;;;;;;;;;;2.30;99.90;;;;;;5008643;28;19989;-81
2021/11/27 02:22:37;;;;;;;;;;;2.30;99.90;;;;;;5015689;28;19922;-81
2021/11/27 02:25:05;;;;;;;;;;;2.20;99.90;;;;;;5014969;28;19965;-81
2021/11/27 02:27:32;;;;;;;;;;;2.20;99.90;;;;;;5005338;28;19973;-80
2021/11/27 02:29:59;;;;;;;;;;;2.20;99.90;;;;;;5005501;28;19978;-81
2021/11/27 02:32:25;;;;;;;;;;;2.20;99.90;;;;;;5013996;28;19960;-81
2021/11/27 02:34:53;;;;;;;;;;;2.10;99.90;;;;;;5019844;28;19937;-81
2021/11/27 02:37:20;;;;;;;;;;;2.10;99.90;;;;;;5018872;28;19942;-81
2021/11/27 02:39:50;;;;;;;;;;;2.10;99.90;;;;;;5002766;28;19926;-81
2021/11/27 02:42:17;;;;;;;;;;;2.10;99.90;;;;;;5024365;28;19956;-81
2021/11/27 02:44:44;;;;;;;;;;;2.10;99.90;;;;;;5004808;28;19938;-81
2021/11/27 02:47:10;;;;;;;;;;;2.10;99.90;;;;;;5017490;28;19937;-81
2021/11/27 02:49:37;;;;;;;;;;;2.10;99.90;;;;;;5013246;28;19964;-81
2021/11/27 02:52:05;;;;;;;;;;;2.00;99.90;;;;;;5008823;28;20006;-81
2021/11/27 02:54:32;;;;;;;;;;;2.00;99.90;;;;;;5011185;28;19997;-78
2021/11/27 02:57:00;;;;;;;;;;;2.00;99.90;;;;;;5013583;28;20025;-81
2021/11/27 02:59:28;;;;;;;;;;;2.00;99.90;;;;;;5014188;28;19930;-81
2021/11/27 03:01:56;;;;;;;;;;;2.00;99.90;;;;;;5006840;28;19932;-81
2021/11/27 03:04:23;;;;;;;;;;;1.90;99.90;;;;;;5007607;28;19910;-81
2021/11/27 03:06:59;;;;;;;;;;;1.90;99.90;;;;;;5011610;28;19929;-83
2021/11/27 03:09:26;;;;;;;;;;;1.90;99.90;;;;;;5010833;28;19932;-81
2021/11/27 03:11:53;;;;;;;;;;;1.80;99.90;;;;;;5012171;28;20449;-80
2021/11/27 03:14:22;;;;;;;;;;;1.80;99.90;;;;;;4991001;28;20013;-80
2021/11/27 03:16:57;;;;;;;;;;;1.80;99.90;;;;;;4996331;28;19926;-80
2021/11/27 03:19:24;;;;;;;;;;;1.70;99.90;;;;;;4999031;28;19989;-80
2021/11/27 03:21:51;;;;;;;;;;;1.70;99.90;;;;;;4990775;28;19934;-80
2021/11/27 03:24:18;;;;;;;;;;;1.70;99.90;;;;;;5002122;28;19925;-80
2021/11/27 03:26:44;;;;;;;;;;;1.60;99.90;;;;;;4993921;28;20502;-80
2021/11/27 03:29:11;;;;;;;;;;;1.60;99.90;;;;;;4994438;28;19993;-81
2021/11/27 03:31:39;;;;;;;;;;;1.60;99.90;;;;;;5006355;28;20012;-81
2021/11/27 03:34:06;;;;;;;;;;;1.50;99.90;;;;;;5005258;28;20091;-80
2021/11/27 03:36:44;;;;;;;;;;;1.50;99.90;;;;;;5006425;28;20405;-81
2021/11/27 03:39:12;;;;;;;;;;;1.50;99.90;;;;;;5009993;28;19980;-81
2021/11/27 03:41:39;;;;;;;;;;;1.40;99.90;;;;;;4999676;28;19926;-80
2021/11/27 03:44:06;;;;;;;;;;;1.40;99.90;;;;;;5006348;28;19976;-82
2021/11/27 03:46:44;;;;;;;;;;;1.40;99.90;;;;;;5016406;28;19926;-81
2021/11/27 03:49:11;;;;;;;;;;;1.30;99.90;;;;;;5014883;28;19933;-81
2021/11/27 03:51:38;;;;;;;;;;;1.30;99.90;;;;;;5005810;28;19949;-82
2021/11/27 03:54:04;;;;;;;;;;;1.30;99.90;;;;;;5008168;28;19933;-83
2021/11/27 03:56:34;;;;;;;;;;;1.20;99.90;;;;;;5004611;28;19922;-80
2021/11/27 03:59:01;;;;;;;;;;;1.20;99.90;;;;;;5010875;28;19910;-82
2021/11/27 04:01:29;;;;;;;;;;;1.20;99.90;;;;;;5005035;28;19930;-82
2021/11/27 04:03:58;;;;;;;;;;;1.20;99.90;;;;;;5009981;28;20441;-81
2021/11/27 04:06:25;;;;;;;;;;;1.10;99.90;;;;;;5009198;28;19941;-80
2021/11/27 04:08:53;;;;;;;;;;;1.10;99.90;;;;;;5019233;28;19942;-78
2021/11/27 04:11:20;;;;;;;;;;;1.10;99.90;;;;;;5007923;28;19909;-76
2021/11/27 04:13:47;;;;;;;;;;;1.00;99.90;;;;;;5022060;28;19974;-81
2021/11/27 04:16:14;;;;;;;;;;;1.00;99.90;;;;;;5016880;28;19961;-79
2021/11/27 04:18:41;;;;;;;;;;;1.00;99.90;;;;;;5013274;28;19916;-80
2021/11/27 04:21:09;;;;;;;;;;;1.00;99.90;;;;;;5009452;28;19910;-75
2021/11/27 04:23:35;;;;;;;;;;;1.00;99.90;;;;;;4999478;28;19965;-77
2021/11/27 04:26:02;;;;;;;;;;;1.00;99.90;;;;;;5009918;28;19945;-81
2021/11/27 04:28:29;;;;;;;;;;;1.00;99.90;;;;;;5010962;28;19910;-80
2021/11/27 04:30:56;;;;;;;;;;;0.90;99.90;;;;;;5009363;28;19994;-80
2021/11/27 04:33:22;;;;;;;;;;;0.90;99.90;;;;;;5009364;28;20001;-81
2021/11/27 04:35:49;;;;;;;;;;;0.90;99.90;;;;;;5020317;28;19973;-80
2021/11/27 04:38:17;;;;;;;;;;;0.90;99.90;;;;;;5016646;28;19961;-80
2021/11/27 04:40:44;;;;;;;;;;;0.90;99.90;;;;;;5016849;28;19957;-81
2021/11/27 04:43:10;;;;;;;;;;;0.90;99.90;;;;;;5002487;28;19926;-80
2021/11/27 04:45:42;;;;;;;;;;;0.80;99.90;;;;;;5004676;28;19972;-81
2021/11/27 04:48:17;;;;;;;;;;;0.80;99.90;;;;;;5012563;28;20068;-81
2021/11/27 04:50:44;;;;;;;;;;;0.90;99.90;;;;;;5008199;28;19926;-81
2021/11/27 04:53:10;;;;;;;;;;;0.90;99.90;;;;;;5015946;28;19958;-80
2021/11/27 04:55:44;;;;;;;;;;;0.80;99.90;;;;;;5019986;28;19961;-81
2021/11/27 04:58:11;;;;;;;;;;;0.80;99.90;;;;;;5014049;28;19934;-82
2021/11/27 05:00:38;;;;;;;;;;;0.80;99.90;;;;;;5003391;28;20013;-80
2021/11/27 05:03:05;;;;;;;;;;;0.80;99.90;;;;;;5015100;28;19938;-79
2021/11/27 05:05:33;;;;;;;;;;;0.70;99.90;;;;;;5012463;28;19954;-80
2021/11/27 05:07:59;;;;;;;;;;;0.70;99.90;;;;;;5016965;28;19950;-80
2021/11/27 05:10:26;;;;;;;;;;;0.70;99.90;;;;;;5012934;28;19970;-80
2021/11/27 05:13:02;;;;;;;;;;;0.70;99.90;;;;;;5020068;28;19969;-81
2021/11/27 05:15:29;;;;;;;;;;;0.70;99.90;;;;;;5015492;28;19985;-80
2021/11/27 05:17:55;;;;;;;;;;;0.60;99.90;;;;;;5023160;28;20013;-79
2021/11/27 05:20:22;;;;;;;;;;;0.70;99.90;;;;;;5015198;28;19954;-79
2021/11/27 05:22:49;;;;;;;;;;;0.60;99.90;;;;;;5009755;28;19969;-80
2021/11/27 05:25:16;;;;;;;;;;;0.60;99.90;;;;;;5005482;28;19930;-81
2021/11/27 05:27:42;;;;;;;;;;;0.60;99.90;;;;;;5013006;28;19985;-81
2021/11/27 05:30:12;;;;;;;;;;;0.60;99.90;;;;;;5007113;28;19973;-80
2021/11/27 05:32:54;;;;;;;;;;;0.50;99.90;;;;;;5009708;28;19914;-80
2021/11/27 05:35:21;;;;;;;;;;;0.50;99.90;;;;;;5006092;28;19917;-79
2021/11/27 05:37:47;;;;;;;;;;;0.50;99.90;;;;;;5010859;28;19952;-80
2021/11/27 05:40:15;;;;;;;;;;;0.50;99.90;;;;;;5008779;28;19937;-80
2021/11/27 05:42:43;;;;;;;;;;;0.50;99.90;;;;;;5011872;28;20002;-80
2021/11/27 05:45:11;;;;;;;;;;;0.50;99.90;;;;;;5013285;28;19952;-80
2021/11/27 05:47:38;;;;;;;;;;;0.50;99.90;;;;;;5011321;28;19936;-80
2021/11/27 05:50:05;;;;;;;;;;;0.50;99.90;;;;;;5022639;28;19997;-80
2021/11/27 05:52:31;;;;;;;;;;;0.50;99.90;;;;;;5002582;28;19958;-77
2021/11/27 05:54:58;;;;;;;;;;;0.50;99.90;;;;;;4995889;28;19985;-78
2021/11/27 05:57:25;;;;;;;;;;;0.50;99.90;;;;;;4996440;28;19988;-78
2021/11/27 05:59:52;;;;;;;;;;;0.40;99.90;;;;;;4995648;28;20382;-78
2021/11/27 06:02:23;;;;;;;;;;;0.30;99.90;;;;;;5008380;28;19926;-79
2021/11/27 06:04:50;;;;;;;;;;;0.20;99.90;;;;;;4994940;28;20030;-78
2021/11/27 06:07:16;;;;;;;;;;;0.20;99.90;;;;;;4981932;28;20294;-77
2021/11/27 06:09:43;;;;;;;;;;;0.10;99.90;;;;;;4987878;28;20402;-77
2021/11/27 06:12:10;;;;;;;;;;;0.00;99.90;;;;;;4992200;28;19926;-78
2021/11/27 06:14:37;;;;;;;;;;;0.00;99.90;;;;;;4993378;28;19926;-78
2021/11/27 06:17:04;;;;;;;;;;;-0.10;99.90;;;;;;4985100;28;20017;-78
2021/11/27 06:19:32;;;;;;;;;;;-0.20;99.90;;;;;;4980475;28;19972;-79
2021/11/27 06:21:58;;;;;;;;;;;-0.20;99.90;;;;;;4987809;28;19932;-78
2021/11/27 06:24:25;;;;;;;;;;;-0.20;99.90;;;;;;4989982;28;20008;-78
2021/11/27 06:26:58;;;;;;;;;;;-0.30;99.90;;;;;;4995781;28;19930;-77
2021/11/27 06:29:25;;;;;;;;;;;-0.40;99.90;;;;;;4991519;28;19960;-78
2021/11/27 06:31:51;;;;;;;;;;;-0.40;99.90;;;;;;4987243;28;19933;-78
2021/11/27 06:34:18;;;;;;;;;;;-0.40;99.90;;;;;;4993262;28;20012;-78
2021/11/27 06:36:46;;;;;;;;;;;-0.50;99.90;;;;;;4986696;28;19933;-78
2021/11/27 06:39:13;;;;;;;;;;;-0.60;99.90;;;;;;4987145;28;20497;-79
2021/11/27 06:41:39;;;;;;;;;;;-0.50;99.90;;;;;;4994225;28;20402;-78
2021/11/27 06:44:06;;;;;;;;;;;-0.40;99.90;;;;;;4991751;28;20383;-77
2021/11/27 06:46:34;;;;;;;;;;;-0.40;99.90;;;;;;4994588;28;19926;-78
2021/11/27 06:49:10;;;;;;;;;;;-0.50;99.90;;;;;;4981891;28;19934;-78
2021/11/27 06:51:36;;;;;;;;;;;-0.50;99.90;;;;;;4984424;28;19926;-78
2021/11/27 06:54:04;;;;;;;;;;;-0.50;99.90;;;;;;4992740;28;19934;-77
2021/11/27 06:56:31;;;;;;;;;;;-0.60;99.90;;;;;;4995236;28;19925;-77
2021/11/27 06:58:57;;;;;;;;;;;-0.50;99.90;;;;;;4990193;28;19930;-78
2021/11/27 07:01:24;;;;;;;;;;;-0.50;99.90;;;;;;4986175;28;19933;-79
2021/11/27 07:03:51;;;;;;;;;;;-0.50;99.90;;;;;;5004003;28;20040;-80
2021/11/27 07:06:17;;;;;;;;;;;-0.40;99.90;;;;;;5000290;28;20318;-80
2021/11/27 07:08:44;;;;;;;;;;;-0.30;99.90;;;;;;4991337;28;20421;-79
2021/11/27 07:11:12;;;;;;;;;;;-0.20;99.90;;;;;;5000066;28;19973;-80
2021/11/27 07:13:39;;;;;;;;;;;-0.20;99.90;;;;;;5008250;28;19976;-80
2021/11/27 07:16:10;;;;;;;;;;;-0.10;99.90;;;;;;5005810;28;20386;-80
2021/11/27 07:18:38;;;;;;;;;;;-0.20;99.90;;;;;;4991809;28;20040;-80
2021/11/27 07:21:10;;;;;;;;;;;-0.20;99.90;;;;;;4998994;28;20004;-80
2021/11/27 07:23:37;;;;;;;;;;;-0.20;99.90;;;;;;4997760;28;19985;-80
2021/11/27 07:26:03;;;;;;;;;;;-0.20;99.90;;;;;;5009215;28;19941;-80
2021/11/27 07:31:37;;;;;;;;;;;-0.20;99.90;;;;;;4984421;28;20068;-78
2021/11/27 07:34:04;;;;;;;;;;;-0.20;99.90;;;;;;4985564;28;19932;-79
2021/11/27 07:36:36;;;;;;;;;;;-0.10;99.90;;;;;;4995443;28;20016;-79
2021/11/27 07:42:07;;;;;;;;;;;-0.10;99.90;;;;;;4991437;28;19937;-79
2021/11/27 07:44:34;;;;;;;;;;;-0.10;99.90;;;;;;5002972;28;19961;-79
2021/11/27 07:47:02;;;;;;;;;;;-0.10;99.90;;;;;;4998447;28;20001;-78
2021/11/27 07:49:32;;;;;;;;;;;0.00;99.90;;;;;;4996723;28;20005;-79
2021/11/27 07:52:02;;;;;;;;;;;0.00;99.90;;;;;;5001955;28;19940;-79
2021/11/27 07:54:29;;;;;;;;;;;0.00;99.90;;;;;;4999263;28;19926;-80
2021/11/27 07:56:56;;;;;;;;;;;0.00;99.90;;;;;;4997774;28;19929;-80
2021/11/27 07:59:23;;;;;;;;;;;0.10;99.90;;;;;;4990329;28;19926;-80
2021/11/27 08:01:49;;;;;;;;;;;0.10;99.90;;;;;;5000314;28;20318;-80
2021/11/27 08:04:18;;;;;;;;;;;0.10;99.90;;;;;;5002120;28;20004;-79
2021/11/27 08:06:45;;;;;;;;;;;0.10;99.90;;;;;;5012874;28;19932;-80
2021/11/27 08:09:12;;;;;;;;;;;0.00;99.90;;;;;;5009198;28;19972;-80
2021/11/27 08:11:39;;;;;;;;;;;0.00;99.90;;;;;;4991780;28;19936;-79
2021/11/27 08:14:05;;;;;;;;;;;0.10;99.90;;;;;;5000181;28;20005;-79
2021/11/27 08:16:32;;;;;;;;;;;0.10;99.90;;;;;;4988288;28;19994;-79
2021/11/27 08:18:59;;;;;;;;;;;0.20;99.90;;;;;;5007692;28;19993;-80
2021/11/27 08:21:28;;;;;;;;;;;0.30;99.90;;;;;;5009724;28;19949;-80
2021/11/27 08:30:06;;;;;;;;;;;0.50;99.90;;;;;;5001712;28;19924;-80
2021/11/27 08:35:08;;;;;;;;;;;0.70;99.90;;;;;;5147778;23;19925;-80
2021/11/27 08:37:36;;;;;;;;;;;0.80;99.90;;;;;;5031643;28;19932;-77
2021/11/27 08:40:03;;;;;;;;;;;0.80;99.90;;;;;;5019618;28;19968;-80
2021/11/27 08:42:30;;;;;;;;;;;0.90;99.90;;;;;;5025484;28;19910;-81
2021/11/27 08:44:57;;;;;;;;;;;0.80;99.90;;;;;;5029348;28;19910;-74
2021/11/27 08:47:24;;;;;;;;;;;0.80;99.90;;;;;;5021717;28;19926;-79
2021/11/27 08:49:52;;;;;;;;;;;1.00;99.90;;;;;;5010234;28;20028;-80
2021/11/27 08:52:19;;;;;;;;;;;0.70;99.90;;;;;;5022360;28;19933;-79
2021/11/27 08:54:47;;;;;;;;;;;0.70;99.90;;;;;;5005991;28;20517;-81
2021/11/27 08:57:16;;;;;;;;;;;0.80;99.90;;;;;;5016678;28;19997;-79
2021/11/27 08:59:43;;;;;;;;;;;0.80;99.90;;;;;;5017372;28;19932;-80
2021/11/27 09:02:10;;;;;;;;;;;0.80;99.90;;;;;;5016028;28;19933;-81
2021/11/27 09:04:36;;;;;;;;;;;0.80;99.90;;;;;;5020848;28;20021;-81
2021/11/27 09:07:03;;;;;;;;;;;0.70;99.90;;;;;;5020539;28;19976;-78
2021/11/27 09:09:31;;;;;;;;;;;0.70;99.90;;;;;;5029034;28;19940;-80
2021/11/27 09:12:01;;;;;;;;;;;0.80;99.90;;;;;;5029294;28;19909;-79
2021/11/27 09:14:28;;;;;;;;;;;0.90;99.90;;;;;;5020809;28;19965;-81
2021/11/27 09:16:54;;;;;;;;;;;0.90;99.90;;;;;;5020183;28;19909;-82
2021/11/27 09:19:31;;;;;;;;;;;0.90;99.90;;;;;;5020227;28;19938;-70
2021/11/27 09:21:58;;;;;;;;;;;1.00;99.90;;;;;;5030393;28;19916;-71
2021/11/27 09:24:25;;;;;;;;;;;1.10;99.90;;;;;;5041664;28;19969;-76
2021/11/27 09:26:51;;;;;;;;;;;1.20;99.90;;;;;;5040333;28;19951;-80
2021/11/27 09:29:20;;;;;;;;;;;1.30;99.90;;;;;;5032897;28;19910;-81
2021/11/27 09:31:47;;;;;;;;;;;1.50;99.90;;;;;;5039384;28;19926;-77
2021/11/27 09:34:14;;;;;;;;;;;1.70;99.90;;;;;;5042132;28;19973;-75
2021/11/27 09:36:42;;;;;;;;;;;1.60;99.90;;;;;;5040187;28;19992;-82
2021/11/27 09:39:10;;;;;;;;;;;1.60;99.90;;;;;;5023772;28;19910;-80
2021/11/27 09:41:40;;;;;;;;;;;1.60;99.90;;;;;;5026043;28;19910;-80
2021/11/27 09:44:07;;;;;;;;;;;1.70;99.90;;;;;;5030805;28;19977;-78
2021/11/27 09:46:36;;;;;;;;;;;1.80;99.90;;;;;;5032589;28;20386;-81
2021/11/27 09:49:04;;;;;;;;;;;1.80;99.90;;;;;;5024428;28;19973;-79
2021/11/27 09:51:35;;;;;;;;;;;1.80;99.90;;;;;;5022689;28;19945;-74
2021/11/27 09:54:03;;;;;;;;;;;1.60;99.90;;;;;;5023075;28;19964;-77
2021/11/27 09:56:31;;;;;;;;;;;1.60;99.90;;;;;;5017716;28;19925;-79
2021/11/27 09:58:58;;;;;;;;;;;1.50;99.90;;;;;;5028243;28;19925;-77
2021/11/27 10:01:26;;;;;;;;;;;1.40;99.90;;;;;;5010643;28;19965;-77
2021/11/27 10:04:01;;;;;;;;;;;1.40;99.90;;;;;;5070321;23;19949;-79
2021/11/27 10:06:54;;;;;;;;;;;1.50;99.90;;;;;;5005671;28;19922;-78
2021/11/27 10:12:33;;;;;;;;;;;1.70;99.90;;;;;;4995025;28;19924;-79
2021/11/27 10:15:00;;;;;;;;;;;1.90;99.90;;;;;;4995148;28;19937;-79
2021/11/27 10:17:32;;;;;;;;;;;1.90;99.90;;;;;;4994535;28;19958;-77
2021/11/27 10:25:34;;;;;;;;;;;2.40;99.90;;;;;;5131130;23;20056;-78
2021/11/27 10:28:13;;;;;;;;;;;2.40;99.90;;;;;;5019943;28;19926;-80
2021/11/27 10:30:42;;;;;;;;;;;2.50;99.90;;;;;;5014377;28;19936;-79
2021/11/27 10:35:59;;;;;;;;;;;2.50;99.90;;;;;;6027752;23;19924;-76
2021/11/27 10:38:38;;;;;;;;;;;2.40;99.90;;;;;;5032419;28;19965;-80
2021/11/27 10:41:05;;;;;;;;;;;2.40;99.90;;;;;;5036562;28;19959;-80
2021/11/27 10:43:33;;;;;;;;;;;2.40;99.90;;;;;;5038333;28;19973;-82
2021/11/27 10:46:07;;;;;;;;;;;2.60;99.90;;;;;;5039927;28;19909;-73
2021/11/27 10:51:37;;;;;;;;;;;2.80;99.90;;;;;;5024130;28;19912;-77
2021/11/27 10:56:42;;;;;;;;;;;3.00;99.90;;;;;;5954194;23;19924;-79
2021/11/27 10:59:10;;;;;;;;;;;3.20;99.90;;;;;;4995713;28;19926;-81
2021/11/27 11:01:57;;;;;;;;;;;3.50;99.90;;;;;;5000095;28;19910;-80
2021/11/27 11:04:24;;;;;;;;;;;3.30;99.90;;;;;;4982440;28;19960;-70
2021/11/27 11:35:04;;;;;;;;;;;5.00;99.90;;;;;;5493668;23;19913;-75
2021/11/27 11:50:29;;;;;;;;;;;5.60;99.90;;;;;;4566893;23;19910;-78
2021/11/27 11:53:08;;;;;;;;;;;5.60;99.90;;;;;;4988413;28;19910;-79
2021/11/27 11:55:51;;;;;;;;;;;5.70;99.90;;;;;;5172772;23;19930;-79
2021/11/27 11:58:24;;;;;;;;;;;5.60;99.90;;;;;;4985767;28;20447;-79
2021/11/27 12:00:55;;;;;;;;;;;5.60;99.90;;;;;;4983434;28;19998;-79
2021/11/27 12:03:42;;;;;;;;;;;5.60;99.90;;;;;;4975999;28;20391;-79
2021/11/27 12:06:23;;;;;;;;;;;5.50;99.90;;;;;;4980366;28;19978;-77
2021/11/27 12:08:56;;;;;;;;;;;5.50;99.90;;;;;;4980078;28;19930;-79
2021/11/27 12:11:56;;;;;;;;;;;5.50;99.90;;;;;;4975597;28;19958;-79
2021/11/27 12:17:03;;;;;;;;;;;5.60;99.90;;;;;;5038478;23;19932;-78
2021/11/27 12:30:06;;;;;;;;;;;5.70;99.90;;;;;;5110349;23;20469;-82
2021/11/27 12:32:45;;;;;;;;;;;5.60;99.90;;;;;;5002505;28;19933;-79
2021/11/27 12:35:32;;;;;;;;;;;5.50;99.90;;;;;;5015769;28;19910;-78
2021/11/27 12:40:34;;;;;;;;;;;5.50;99.90;;;;;;5114073;23;19937;-80
2021/11/27 12:43:07;;;;;;;;;;;5.40;99.90;;;;;;5037626;28;19914;-80
2021/11/27 12:48:47;;;;;;;;;;;5.60;99.90;;;;;;5011143;23;19939;-76
2021/11/27 12:51:21;;;;;;;;;;;5.70;99.90;;;;;;5043873;28;19917;-76
2021/11/27 12:54:04;;;;;;;;;;;5.80;99.90;;;;;;5049087;28;19917;-80
2021/11/27 13:04:46;;;;;;;;;;;5.60;99.90;;;;;;5817916;23;19944;-80
2021/11/27 13:07:13;;;;;;;;;;;5.60;99.90;;;;;;5001219;28;19931;-76
2021/11/27 13:09:53;;;;;;;;;;;5.60;99.90;;;;;;5018915;23;19958;-72
2021/11/27 13:12:20;;;;;;;;;;;5.40;99.90;;;;;;5006745;28;19910;-71
2021/11/27 13:14:47;;;;;;;;;;;5.30;99.90;;;;;;4952356;28;20349;-77
2021/11/27 13:17:15;;;;;;;;;;;5.20;99.90;;;;;;4975171;28;20042;-79
2021/11/27 13:19:43;;;;;;;;;;;5.00;99.90;;;;;;4979811;28;19926;-76
2021/11/27 13:22:12;;;;;;;;;;;5.00;99.90;;;;;;4993650;28;19961;-80
2021/11/27 13:24:52;;;;;;;;;;;5.00;99.90;;;;;;4979938;28;19961;-78
2021/11/27 13:27:21;;;;;;;;;;;5.00;99.90;;;;;;4967248;28;19937;-77
2021/11/27 13:29:48;;;;;;;;;;;4.90;99.90;;;;;;4980366;28;19930;-80
2021/11/27 13:32:14;;;;;;;;;;;4.90;99.90;;;;;;4982937;28;19927;-79
2021/11/27 13:34:49;;;;;;;;;;;4.90;99.90;;;;;;4983179;28;19950;-80
2021/11/27 13:37:18;;;;;;;;;;;5.00;99.90;;;;;;4984618;28;19989;-81
2021/11/27 13:39:44;;;;;;;;;;;5.10;99.90;;;;;;4988357;28;19937;-78
2021/11/27 13:42:12;;;;;;;;;;;5.10;99.90;;;;;;4979770;28;19982;-79
2021/11/27 13:44:40;;;;;;;;;;;5.20;99.90;;;;;;4972637;28;20527;-76
2021/11/27 13:47:07;;;;;;;;;;;5.20;99.90;;;;;;4970612;28;22095;-76
2021/11/27 13:49:35;;;;;;;;;;;5.20;99.90;;;;;;4966725;28;20422;-79
2021/11/27 13:52:03;;;;;;;;;;;5.20;99.90;;;;;;4985033;28;19966;-80
2021/11/27 13:54:32;;;;;;;;;;;5.20;99.90;;;;;;4987959;28;19972;-79
2021/11/27 13:56:59;;;;;;;;;;;5.20;99.90;;;;;;4995044;28;20391;-80
2021/11/27 13:59:27;;;;;;;;;;;5.10;99.90;;;;;;4986922;28;20025;-79
2021/11/27 14:01:57;;;;;;;;;;;5.00;99.90;;;;;;4975114;28;19972;-79
2021/11/27 14:04:25;;;;;;;;;;;5.00;99.90;;;;;;4975202;28;19993;-79
2021/11/27 14:06:56;;;;;;;;;;;5.10;99.90;;;;;;4971156;28;20039;-80
2021/11/27 14:09:22;;;;;;;;;;;5.00;99.90;;;;;;4989579;28;19933;-79
2021/11/27 14:11:52;;;;;;;;;;;5.00;99.90;;;;;;4990660;28;19926;-80
2021/11/27 14:14:19;;;;;;;;;;;5.00;99.90;;;;;;4997388;28;19947;-79
2021/11/27 14:16:47;;;;;;;;;;;5.00;99.90;;;;;;4981715;28;19977;-77
2021/11/27 14:19:15;;;;;;;;;;;4.90;99.90;;;;;;4982653;28;19910;-79
2021/11/27 14:21:42;;;;;;;;;;;4.90;99.90;;;;;;4998312;28;20372;-79
2021/11/27 14:24:10;;;;;;;;;;;4.90;99.90;;;;;;4984580;28;19934;-79
2021/11/27 14:26:42;;;;;;;;;;;4.90;99.90;;;;;;4976259;28;19934;-80
2021/11/27 14:29:17;;;;;;;;;;;4.90;99.90;;;;;;5000393;23;19942;-80
2021/11/27 14:31:44;;;;;;;;;;;4.80;99.90;;;;;;4987880;28;19966;-81
2021/11/27 14:34:12;;;;;;;;;;;4.80;99.90;;;;;;4989863;28;19926;-81
2021/11/27 14:36:40;;;;;;;;;;;4.80;99.90;;;;;;4996558;28;19942;-76
2021/11/27 14:39:16;;;;;;;;;;;4.70;99.90;;;;;;4995383;28;19911;-73
2021/11/27 14:44:41;;;;;;;;;;;4.70;99.90;;;;;;5741837;23;19958;-79
2021/11/27 14:47:09;;;;;;;;;;;4.70;99.90;;;;;;5005353;28;19937;-75
2021/11/27 14:49:37;;;;;;;;;;;4.70;99.90;;;;;;5008531;28;19934;-81
2021/11/27 14:59:53;;;;;;;;;;;4.60;99.90;;;;;;5770648;23;19926;-79
2021/11/27 15:02:20;;;;;;;;;;;4.60;99.90;;;;;;5000490;28;19917;-80
2021/11/27 15:04:48;;;;;;;;;;;4.60;99.90;;;;;;5002767;28;19917;-80
2021/11/27 15:07:15;;;;;;;;;;;4.50;99.90;;;;;;5000162;28;19930;-78
2021/11/27 15:09:42;;;;;;;;;;;4.40;99.90;;;;;;4986373;28;19910;-78
2021/11/27 15:12:10;;;;;;;;;;;4.50;99.90;;;;;;4991657;28;19926;-80
2021/11/27 15:14:40;;;;;;;;;;;4.50;99.90;;;;;;4990824;28;19942;-82
2021/11/27 15:17:10;;;;;;;;;;;4.50;99.90;;;;;;4994615;28;19910;-78
2021/11/27 15:19:38;;;;;;;;;;;4.50;99.90;;;;;;4990660;28;19940;-80
2021/11/27 15:22:05;;;;;;;;;;;4.50;99.90;;;;;;4987734;28;19937;-80
2021/11/27 15:29:35;;;;;;;;;;;4.50;99.90;;;;;;5540731;23;19910;-80
2021/11/27 15:32:03;;;;;;;;;;;4.50;99.90;;;;;;5003041;28;19957;-75
2021/11/27 15:34:32;;;;;;;;;;;4.40;99.90;;;;;;5006778;28;19949;-79
2021/11/27 15:37:01;;;;;;;;;;;4.40;99.90;;;;;;5014906;28;19922;-76
2021/11/27 15:42:05;;;;;;;;;;;4.40;99.90;;;;;;5664158;23;19914;-75
2021/11/27 15:44:32;;;;;;;;;;;4.40;99.90;;;;;;4981143;28;19919;-80
2021/11/27 15:55:14;;;;;;;;;;;4.20;99.90;;;;;;5050048;23;19914;-82
2021/11/27 15:57:41;;;;;;;;;;;4.10;99.90;;;;;;4999356;28;19937;-77
2021/11/27 16:00:08;;;;;;;;;;;4.00;99.90;;;;;;4999538;28;19914;-73
2021/11/27 16:02:35;;;;;;;;;;;3.90;99.90;;;;;;4997234;28;19917;-71
2021/11/27 16:05:03;;;;;;;;;;;3.80;99.90;;;;;;4991971;28;19926;-70
2021/11/27 16:07:33;;;;;;;;;;;3.80;99.90;;;;;;5366437;23;19918;-72
2021/11/27 16:10:00;;;;;;;;;;;3.80;99.90;;;;;;5019066;28;20024;-80
2021/11/27 16:12:28;;;;;;;;;;;3.80;99.90;;;;;;5006774;28;19926;-78
2021/11/27 16:15:00;;;;;;;;;;;3.70;99.90;;;;;;4996210;28;19926;-80
2021/11/27 16:17:27;;;;;;;;;;;3.60;99.90;;;;;;5008629;28;19933;-81
2021/11/27 16:19:56;;;;;;;;;;;3.80;99.90;;;;;;5004587;28;19910;-75
2021/11/27 16:22:26;;;;;;;;;;;3.80;99.90;;;;;;5008641;28;19946;-79
2021/11/27 16:24:57;;;;;;;;;;;3.70;99.90;;;;;;5009958;28;19977;-79
2021/11/27 16:27:24;;;;;;;;;;;3.60;99.90;;;;;;5016367;28;19957;-76
2021/11/27 16:29:55;;;;;;;;;;;3.60;99.90;;;;;;4991595;28;19926;-75
2021/11/27 16:32:22;;;;;;;;;;;3.50;99.90;;;;;;5011539;23;19933;-80
2021/11/27 16:40:15;;;;;;;;;;;3.50;99.90;;;;;;5184870;23;19932;-82
2021/11/27 16:42:42;;;;;;;;;;;3.50;99.90;;;;;;5019752;28;20298;-78
2021/11/27 16:45:11;;;;;;;;;;;3.40;99.90;;;;;;5025220;28;19965;-75
2021/11/27 16:47:39;;;;;;;;;;;3.40;99.90;;;;;;5018081;28;19932;-76
2021/11/27 16:50:06;;;;;;;;;;;3.40;99.90;;;;;;5038941;28;19910;-78
2021/11/27 16:55:13;;;;;;;;;;;3.40;99.90;;;;;;5015487;28;19949;-80